Time;durP1;ratioP1;P1;durP2;ratioP2;P2;SDS_P1;SDS_P2;PMS_P1;PMS_P2;Temp;Humidity;BMP_temperature;BMP_pressure;BME280_temperature;BME280_humidity;BME280_pressure;Samples;Min_cycle;Max_cycle;Signal;HPM_P1;HPM_P2
2021/01/17 00:00:00;;;;;;;16.35;9.82;;;;;;;-2.85;45.78;93519.28;4955745;28;20129;-75
2021/01/17 00:02:26;;;;;;;19.67;10.90;;;;;;;-2.70;45.74;93530.88;4958904;28;20043;-75
2021/01/17 00:04:52;;;;;;;17.73;9.88;;;;;;;-2.74;46.15;93534.88;4958027;28;20042;-74
2021/01/17 00:07:18;;;;;;;16.67;10.13;;;;;;;-2.82;46.22;93536.94;4962511;28;20035;-74
2021/01/17 00:09:43;;;;;;;17.05;9.95;;;;;;;-2.85;46.27;93534.78;4959949;28;20043;-75
2021/01/17 00:12:09;;;;;;;16.33;8.93;;;;;;;-2.81;46.55;93538.53;4963127;28;20565;-75
2021/01/17 00:14:36;;;;;;;16.80;10.35;;;;;;;-2.78;46.81;93527.75;4955882;28;20030;-75
2021/01/17 00:17:03;;;;;;;19.02;10.65;;;;;;;-2.85;46.96;93535.59;4953009;28;20086;-74
2021/01/17 00:19:29;;;;;;;15.32;9.35;;;;;;;-2.86;47.14;93525.44;4958873;28;20546;-74
2021/01/17 00:21:54;;;;;;;16.20;9.73;;;;;;;-2.87;47.01;93529.81;4951067;28;20049;-75
2021/01/17 00:24:20;;;;;;;18.48;9.50;;;;;;;-2.93;47.29;93524.72;4953980;28;20047;-75
2021/01/17 00:26:45;;;;;;;17.08;9.77;;;;;;;-3.07;47.65;93522.25;4954537;28;20484;-75
2021/01/17 00:29:11;;;;;;;21.02;11.48;;;;;;;-3.04;47.59;93521.03;4959971;28;21546;-75
2021/01/17 00:31:37;;;;;;;22.48;12.63;;;;;;;-3.12;47.73;93524.66;4959564;28;20046;-75
2021/01/17 00:34:02;;;;;;;20.75;11.63;;;;;;;-3.19;47.78;93516.19;4957145;28;20015;-74
2021/01/17 00:36:29;;;;;;;20.70;10.93;;;;;;;-3.14;47.69;93533.66;4959193;28;20050;-75
2021/01/17 00:38:54;;;;;;;19.75;11.23;;;;;;;-3.25;47.91;93529.94;4960286;28;20610;-75
2021/01/17 00:41:28;;;;;;;17.52;10.25;;;;;;;-3.35;47.94;93511.53;4957203;28;20038;-75
2021/01/17 00:43:54;;;;;;;21.67;11.10;;;;;;;-3.18;48.30;93528.13;4957167;28;20090;-75
2021/01/17 00:46:19;;;;;;;16.70;10.40;;;;;;;-3.19;47.64;93526.53;4959345;28;20039;-75
2021/01/17 00:48:45;;;;;;;18.83;10.68;;;;;;;-3.21;47.94;93528.53;4958547;28;20039;-75
2021/01/17 00:51:10;;;;;;;17.42;10.55;;;;;;;-3.24;47.73;93523.78;4958919;28;20362;-75
2021/01/17 00:53:36;;;;;;;17.65;10.05;;;;;;;-3.20;47.73;93519.78;4953257;28;20054;-75
2021/01/17 00:56:01;;;;;;;16.42;9.65;;;;;;;-3.21;47.99;93520.78;4959788;28;20057;-75
2021/01/17 00:58:26;;;;;;;17.65;10.18;;;;;;;-3.19;48.00;93500.69;4959279;28;20034;-75
2021/01/17 01:00:52;;;;;;;13.90;8.98;;;;;;;-3.19;47.50;93510.22;4959912;28;20066;-75
2021/01/17 01:03:17;;;;;;;16.80;9.43;;;;;;;-3.16;47.69;93523.50;4960254;28;20110;-75
2021/01/17 01:05:43;;;;;;;17.92;9.75;;;;;;;-3.21;47.83;93525.94;4959034;28;20555;-76
2021/01/17 01:08:08;;;;;;;20.65;11.45;;;;;;;-3.24;48.08;93518.63;4963032;28;20047;-76
2021/01/17 01:10:34;;;;;;;15.95;9.90;;;;;;;-3.20;47.96;93522.34;4974854;28;20035;-76
2021/01/17 01:12:59;;;;;;;15.60;9.00;;;;;;;-3.15;47.86;93525.09;4974695;28;20054;-75
2021/01/17 01:15:25;;;;;;;14.88;9.07;;;;;;;-3.16;47.66;93525.31;4955956;28;20590;-75
2021/01/17 01:17:50;;;;;;;16.15;10.18;;;;;;;-3.03;47.68;93524.41;4956461;28;20093;-75
2021/01/17 01:20:15;;;;;;;19.13;9.30;;;;;;;-3.04;47.18;93522.84;4959703;28;20042;-76
2021/01/17 01:22:41;;;;;;;14.68;9.27;;;;;;;-3.06;46.72;93523.81;4957742;28;20022;-75
2021/01/17 01:25:08;;;;;;;15.77;9.48;;;;;;;-3.06;46.80;93508.31;4959983;28;20370;-75
2021/01/17 01:27:33;;;;;;;15.57;10.02;;;;;;;-2.98;46.53;93525.34;4959991;28;20049;-76
2021/01/17 01:29:59;;;;;;;15.35;9.85;;;;;;;-3.01;46.70;93519.81;4964332;28;20035;-75
2021/01/17 01:32:24;;;;;;;13.63;9.05;;;;;;;-3.00;46.60;93514.44;4957727;28;20510;-76
2021/01/17 01:34:50;;;;;;;13.27;9.02;;;;;;;-3.07;46.72;93509.31;4958170;28;20027;-76
2021/01/17 01:37:15;;;;;;;16.08;9.43;;;;;;;-3.13;47.07;93520.50;4962499;28;20035;-75
2021/01/17 01:39:41;;;;;;;16.88;9.38;;;;;;;-3.13;46.63;93515.31;4960137;28;20050;-76
2021/01/17 01:42:07;;;;;;;15.77;9.15;;;;;;;-3.22;46.27;93506.25;4956553;28;20100;-76
2021/01/17 01:44:33;;;;;;;15.63;8.75;;;;;;;-3.29;46.74;93510.72;4955526;28;20515;-76
2021/01/17 01:46:59;;;;;;;14.57;9.25;;;;;;;-3.27;46.85;93519.03;4957355;28;20062;-75
2021/01/17 01:49:26;;;;;;;15.77;9.10;;;;;;;-3.21;46.45;93507.84;4960506;28;20023;-76
2021/01/17 01:51:52;;;;;;;18.80;9.77;;;;;;;-3.13;46.33;93515.31;4957483;28;20039;-76
2021/01/17 01:54:18;;;;;;;15.68;9.13;;;;;;;-3.18;46.55;93515.19;4959043;28;20035;-75
2021/01/17 01:56:43;;;;;;;15.10;9.07;;;;;;;-3.20;46.43;93506.84;4957770;28;20039;-76
2021/01/17 01:59:09;;;;;;;13.73;8.43;;;;;;;-3.12;46.46;93511.75;4957809;28;20047;-75
2021/01/17 02:01:34;;;;;;;13.63;8.63;;;;;;;-3.14;46.12;93503.44;4962032;28;20390;-76
2021/01/17 02:04:00;;;;;;;13.20;8.50;;;;;;;-3.15;45.73;93491.50;4943129;28;20538;-76
2021/01/17 02:06:26;;;;;;;15.75;8.55;;;;;;;-3.07;45.31;93504.16;4960029;28;20499;-75
2021/01/17 02:09:24;;;;;;;13.55;7.80;;;;;;;-3.06;45.04;93500.56;4962535;28;20518;-76
2021/01/17 02:12:26;;;;;;;13.07;7.50;;;;;;;-3.06;45.26;93505.72;4965157;28;20053;-76
2021/01/17 02:15:10;;;;;;;14.65;9.05;;;;;;;-3.22;45.84;93510.63;4958148;28;20034;-76
2021/01/17 02:17:36;;;;;;;17.67;8.93;;;;;;;-3.18;45.99;93509.22;4956378;28;20049;-76
2021/01/17 02:20:11;;;;;;;19.15;9.05;;;;;;;-3.21;46.27;93497.50;4949789;28;20801;-74
2021/01/17 02:22:58;;;;;;;10.73;8.50;;;;;;;-3.13;46.35;93499.06;4957350;28;20022;-75
2021/01/17 02:25:25;;;;;;;15.25;9.05;;;;;;;-3.24;46.67;93487.63;4974161;28;20069;-74
2021/01/17 02:27:51;;;;;;;16.48;8.90;;;;;;;-3.23;46.53;93494.38;4955532;28;20051;-75
2021/01/17 02:30:19;;;;;;;14.23;8.30;;;;;;;-3.21;46.93;93496.72;4958779;28;20455;-74
2021/01/17 02:32:51;;;;;;;13.30;8.65;;;;;;;-3.35;46.93;93480.53;4960150;28;20130;-74
2021/01/17 02:35:17;;;;;;;17.00;9.80;;;;;;;-3.24;47.00;93492.78;4959428;28;20055;-74
2021/01/17 02:37:47;;;;;;;14.52;9.52;;;;;;;-3.23;47.00;93504.69;4958877;28;20022;-75
2021/01/17 02:40:35;;;;;;;16.27;9.38;;;;;;;-3.22;47.06;93505.47;4975063;28;20087;-75
2021/01/17 02:43:01;;;;;;;15.80;8.82;;;;;;;-3.29;47.24;93494.41;4959726;28;20042;-75
2021/01/17 02:45:27;;;;;;;15.70;9.63;;;;;;;-3.25;47.10;93496.34;4963463;28;20034;-75
2021/01/17 02:47:53;;;;;;;17.52;10.65;;;;;;;-3.31;47.20;93499.78;4961161;28;20057;-74
2021/01/17 02:50:18;;;;;;;14.65;9.43;;;;;;;-3.32;47.50;93511.09;4961127;28;20035;-77
2021/01/17 02:53:08;;;;;;;15.82;10.07;;;;;;;-3.32;47.60;93505.19;4964017;28;20451;-74
2021/01/17 02:55:37;;;;;;;16.65;9.27;;;;;;;-3.31;47.44;93512.69;4981668;28;20035;-76
2021/01/17 02:58:03;;;;;;;15.77;9.55;;;;;;;-3.26;47.41;93509.47;4955883;28;20126;-74
2021/01/17 03:00:33;;;;;;;15.57;9.60;;;;;;;-3.22;47.21;93501.09;4963226;28;20046;-76
2021/01/17 03:03:00;;;;;;;15.18;9.45;;;;;;;-3.17;47.12;93501.25;4963117;28;20515;-77
2021/01/17 03:05:26;;;;;;;13.73;8.38;;;;;;;-3.19;46.85;93481.81;4960406;28;20498;-76
2021/01/17 03:07:54;;;;;;;14.65;9.10;;;;;;;-3.13;46.94;93499.81;4958720;28;20026;-77
2021/01/17 03:10:22;;;;;;;16.75;9.63;;;;;;;-3.17;46.85;93493.50;4962481;28;20038;-74
2021/01/17 03:12:48;;;;;;;14.63;8.68;;;;;;;-3.15;46.77;93491.50;4965298;28;20516;-77
2021/01/17 03:15:18;;;;;;;15.35;9.13;;;;;;;-3.16;46.71;93484.75;4958801;28;20361;-74
2021/01/17 03:17:44;;;;;;;15.85;8.70;;;;;;;-3.18;46.77;93486.78;4961138;28;20046;-76
2021/01/17 03:20:10;;;;;;;17.55;9.10;;;;;;;-3.20;46.67;93487.97;4953345;28;20046;-75
2021/01/17 03:22:35;;;;;;;12.70;9.30;;;;;;;-3.26;46.62;93494.78;4971597;28;20064;-74
2021/01/17 03:25:01;;;;;;;16.13;9.40;;;;;;;-3.25;46.99;93486.03;4954775;28;20381;-74
2021/01/17 03:27:27;;;;;;;16.15;9.52;;;;;;;-3.26;46.85;93489.59;4959224;28;20034;-74
2021/01/17 03:29:52;;;;;;;16.10;8.80;;;;;;;-3.26;46.89;93488.81;4961690;28;20043;-73
2021/01/17 03:32:18;;;;;;;15.02;9.43;;;;;;;-3.26;46.90;93479.25;4954357;28;20058;-74
2021/01/17 03:34:50;;;;;;;16.75;9.20;;;;;;;-3.16;46.76;93476.19;4960240;28;20443;-74
2021/01/17 03:37:16;;;;;;;17.50;9.25;;;;;;;-3.17;46.81;93478.00;4962489;28;20645;-74
2021/01/17 03:39:42;;;;;;;14.18;9.00;;;;;;;-3.12;46.43;93485.91;4959743;28;20373;-73
2021/01/17 03:42:09;;;;;;;14.55;8.80;;;;;;;-3.09;46.19;93488.06;4959433;28;20553;-76
2021/01/17 03:44:34;;;;;;;13.10;8.55;;;;;;;-3.10;46.54;93488.28;4962253;28;20085;-76
2021/01/17 03:47:00;;;;;;;13.68;8.82;;;;;;;-3.09;46.29;93480.31;4957483;28;20050;-74
2021/01/17 03:49:25;;;;;;;13.55;8.45;;;;;;;-3.14;46.18;93472.41;4963977;28;20495;-74
2021/01/17 03:51:51;;;;;;;16.55;8.27;;;;;;;-3.04;46.10;93484.84;4960472;28;20121;-76
2021/01/17 03:54:16;;;;;;;18.10;9.38;;;;;;;-3.03;45.90;93488.22;4957829;28;20421;-74
2021/01/17 03:56:41;;;;;;;15.25;8.88;;;;;;;-3.01;45.76;93491.38;4960769;28;20073;-74
2021/01/17 03:59:07;;;;;;;19.33;10.50;;;;;;;-3.06;45.99;93497.19;4960387;28;20034;-74
2021/01/17 04:01:32;;;;;;;15.07;9.18;;;;;;;-3.04;46.03;93489.22;4962978;28;20030;-76
2021/01/17 04:03:58;;;;;;;13.43;7.80;;;;;;;-3.02;45.61;93489.78;4955060;28;20031;-74
2021/01/17 04:06:24;;;;;;;13.50;7.72;;;;;;;-3.12;45.63;93487.69;4961110;28;20153;-74
2021/01/17 04:08:50;;;;;;;17.52;8.00;;;;;;;-3.10;44.75;93478.72;4956507;28;20500;-77
2021/01/17 04:11:15;;;;;;;16.83;8.93;;;;;;;-3.02;45.27;93492.38;4961362;28;20053;-74
2021/01/17 04:13:41;;;;;;;15.38;8.88;;;;;;;-2.97;45.32;93482.19;4959149;28;20027;-77
2021/01/17 04:16:08;;;;;;;18.38;9.15;;;;;;;-3.00;45.80;93493.75;4963088;28;20022;-75
2021/01/17 04:18:34;;;;;;;15.23;9.10;;;;;;;-2.93;45.82;93484.13;4958980;28;20096;-75
2021/01/17 04:20:59;;;;;;;17.10;9.35;;;;;;;-2.93;45.56;93484.13;4963786;28;20166;-75
2021/01/17 04:23:24;;;;;;;14.50;7.95;;;;;;;-2.99;45.62;93487.59;4976366;28;20038;-76
2021/01/17 04:25:50;;;;;;;12.98;7.68;;;;;;;-2.90;45.01;93488.09;4960854;28;20030;-76
2021/01/17 04:28:15;;;;;;;17.95;9.02;;;;;;;-2.93;45.11;93485.94;4965277;28;20015;-76
2021/01/17 04:30:41;;;;;;;16.48;7.75;;;;;;;-2.88;45.03;93486.09;4962636;28;20168;-76
2021/01/17 04:33:07;;;;;;;12.82;7.60;;;;;;;-2.89;44.87;93471.59;4962913;28;20039;-75
2021/01/17 04:35:32;;;;;;;11.43;6.93;;;;;;;-2.84;44.65;93488.03;4956529;28;20578;-76
2021/01/17 04:37:59;;;;;;;13.27;7.82;;;;;;;-2.80;44.30;93493.56;4963987;28;20547;-75
2021/01/17 04:40:29;;;;;;;10.40;6.97;;;;;;;-2.77;44.21;93495.72;4961195;28;20030;-75
2021/01/17 04:43:07;;;;;;;10.88;7.20;;;;;;;-2.82;43.93;93496.34;4955777;28;20622;-76
2021/01/17 04:45:34;;;;;;;12.48;6.90;;;;;;;-2.77;43.92;93498.31;4960738;28;20046;-75
2021/01/17 04:48:01;;;;;;;13.98;8.23;;;;;;;-2.81;43.99;93500.53;4976654;28;20042;-76
2021/01/17 04:50:31;;;;;;;15.05;9.15;;;;;;;-2.78;43.60;93505.25;4959783;28;20395;-75
2021/01/17 04:53:06;;;;;;;14.82;7.30;;;;;;;-2.74;43.65;93506.44;4959667;28;20073;-76
2021/01/17 04:55:34;;;;;;;11.18;7.85;;;;;;;-2.87;43.63;93498.78;4964970;28;20015;-75
2021/01/17 04:58:10;;;;;;;14.55;7.72;;;;;;;-2.84;43.45;93502.75;4958027;28;20034;-76
2021/01/17 05:00:41;;;;;;;12.38;8.05;;;;;;;-2.87;43.33;93498.78;4957120;28;20500;-76
2021/01/17 05:03:29;;;;;;;11.15;7.35;;;;;;;-2.88;43.41;93491.28;4960776;28;20035;-76
2021/01/17 05:06:13;;;;;;;16.35;8.15;;;;;;;-2.88;42.93;93499.78;4957203;28;20138;-76
2021/01/17 05:08:45;;;;;;;11.68;6.57;;;;;;;-2.93;43.37;93496.28;4956511;28;20074;-76
2021/01/17 05:11:33;;;;;;;10.13;6.25;;;;;;;-2.99;43.08;93495.34;4957184;28;20039;-76
2021/01/17 05:14:20;;;;;;;9.27;6.50;;;;;;;-2.97;43.54;93503.66;4962360;28;20585;-75
2021/01/17 05:16:47;;;;;;;10.25;6.60;;;;;;;-2.95;43.85;93509.41;4959747;28;20069;-75
2021/01/17 05:19:19;;;;;;;12.02;7.07;;;;;;;-2.92;43.89;93496.06;4959115;28;20031;-75
2021/01/17 05:21:50;;;;;;;13.73;8.43;;;;;;;-2.85;43.87;93501.19;4960358;28;20054;-75
2021/01/17 05:24:19;;;;;;;17.95;7.63;;;;;;;-2.91;43.73;93495.06;4956468;28;20051;-75
2021/01/17 05:26:52;;;;;;;12.98;7.38;;;;;;;-2.83;43.90;93505.13;4958809;28;20125;-74
2021/01/17 05:29:20;;;;;;;13.60;7.55;;;;;;;-2.81;44.15;93503.13;4961236;28;20047;-75
2021/01/17 05:31:49;;;;;;;13.95;7.75;;;;;;;-2.80;43.79;93496.16;4958696;28;20377;-74
2021/01/17 05:34:16;;;;;;;12.23;6.75;;;;;;;-2.77;43.80;93499.09;4960582;28;20472;-75
2021/01/17 05:36:46;;;;;;;14.77;7.18;;;;;;;-2.76;43.40;93500.69;4959918;28;20046;-76
2021/01/17 05:39:12;;;;;;;11.70;7.80;;;;;;;-2.74;43.05;93503.06;4957995;28;20043;-74
2021/01/17 05:41:37;;;;;;;12.43;6.93;;;;;;;-2.73;43.13;93499.44;4955369;28;20373;-75
2021/01/17 05:44:03;;;;;;;10.80;6.35;;;;;;;-2.74;43.16;93506.44;4960984;28;20117;-74
2021/01/17 05:46:28;;;;;;;12.10;7.00;;;;;;;-2.79;43.70;93511.47;4954624;28;20772;-75
2021/01/17 05:49:13;;;;;;;10.18;7.03;;;;;;;-2.86;43.80;93504.75;4956938;28;20435;-75
2021/01/17 05:51:39;;;;;;;10.98;7.45;;;;;;;-2.84;43.69;93513.09;4969930;28;20043;-75
2021/01/17 05:54:09;;;;;;;10.43;7.32;;;;;;;-2.81;43.79;93500.53;4971894;28;20047;-75
2021/01/17 05:56:36;;;;;;;13.57;8.02;;;;;;;-2.82;43.35;93506.69;4960831;28;20046;-74
2021/01/17 05:59:03;;;;;;;12.02;7.53;;;;;;;-2.87;43.63;93500.59;4973874;28;20153;-75
2021/01/17 06:01:33;;;;;;;11.32;7.45;;;;;;;-2.84;43.50;93502.75;4963515;28;20022;-75
2021/01/17 06:04:07;;;;;;;14.02;7.20;;;;;;;-2.85;44.02;93506.34;4951876;28;20046;-75
2021/01/17 06:06:33;;;;;;;11.97;7.33;;;;;;;-2.80;44.08;93509.09;4976148;28;20405;-75
2021/01/17 06:09:00;;;;;;;11.38;7.57;;;;;;;-2.89;43.63;93485.31;4958141;28;20047;-75
2021/01/17 06:11:26;;;;;;;11.20;7.70;;;;;;;-2.77;43.83;93495.72;4958132;28;20042;-75
2021/01/17 06:13:58;;;;;;;15.63;8.70;;;;;;;-2.82;43.58;93487.81;4961725;28;20019;-75
2021/01/17 06:16:39;;;;;;;14.43;8.13;;;;;;;-2.76;43.74;93498.09;4957619;28;20365;-75
2021/01/17 06:19:07;;;;;;;10.70;7.53;;;;;;;-2.75;44.03;93497.09;4951174;28;20055;-75
2021/01/17 06:21:33;;;;;;;13.88;8.65;;;;;;;-2.83;44.26;93489.59;4958697;28;20468;-75
2021/01/17 06:24:03;;;;;;;11.73;7.65;;;;;;;-2.63;43.86;93495.38;4950764;28;20066;-75
2021/01/17 06:26:39;;;;;;;9.18;7.00;;;;;;;-2.54;43.93;93502.84;4953747;28;20047;-75
2021/01/17 06:29:12;;;;;;;14.07;7.78;;;;;;;-2.51;43.36;93498.03;4958294;28;20043;-76
2021/01/17 06:31:39;;;;;;;16.67;9.18;;;;;;;-2.37;43.76;93501.25;4971673;28;20039;-77
2021/01/17 06:34:06;;;;;;;19.25;11.00;;;;;;;-2.26;43.33;93501.34;4954966;28;20665;-75
2021/01/17 06:36:32;;;;;;;15.50;9.23;;;;;;;-2.19;43.58;93486.50;4957275;28;20046;-76
2021/01/17 06:38:58;;;;;;;15.30;8.18;;;;;;;-2.00;43.56;93496.81;4958912;28;20067;-76
2021/01/17 06:41:34;;;;;;;12.90;8.50;;;;;;;-1.93;43.61;93482.78;4955610;28;20456;-76
2021/01/17 06:44:09;;;;;;;17.65;8.88;;;;;;;-1.80;43.06;93499.94;4960619;28;20627;-76
2021/01/17 06:46:46;;;;;;;15.68;8.35;;;;;;;-1.80;42.94;93494.75;4955812;28;20058;-76
2021/01/17 06:49:24;;;;;;;13.77;8.65;;;;;;;-1.71;42.62;93514.16;4957670;28;20618;-76
2021/01/17 06:51:51;;;;;;;15.75;9.60;;;;;;;-1.67;42.70;93504.97;4952752;28;20059;-76
2021/01/17 06:54:18;;;;;;;16.00;10.18;;;;;;;-1.67;42.38;93494.59;4960432;28;20039;-76
2021/01/17 06:56:45;;;;;;;19.30;12.10;;;;;;;-1.57;42.25;93510.41;4957027;28;20039;-76
2021/01/17 06:59:11;;;;;;;20.20;11.30;;;;;;;-1.44;42.25;93512.78;4954285;28;20031;-76
2021/01/17 07:01:43;;;;;;;26.33;14.65;;;;;;;-1.41;41.99;93506.34;4958670;28;20387;-76
2021/01/17 07:04:12;;;;;;;18.15;10.63;;;;;;;-1.16;42.00;93516.56;4955722;28;20022;-76
2021/01/17 07:07:05;;;;;;;18.52;11.30;;;;;;;-0.94;41.41;93515.81;4957750;28;20034;-76
2021/01/17 07:09:47;;;;;;;13.73;8.95;;;;;;;-0.73;41.28;93519.63;4955790;28;20043;-76
2021/01/17 07:12:30;;;;;;;14.65;8.60;;;;;;;-0.71;40.88;93520.19;4954977;28;20508;-76
2021/01/17 07:15:07;;;;;;;18.52;11.05;;;;;;;-0.84;41.25;93486.72;4953441;28;20053;-76
2021/01/17 07:17:35;;;;;;;15.70;9.15;;;;;;;-0.61;40.67;93517.03;4956696;28;20082;-75
2021/01/17 07:20:09;;;;;;;21.10;13.52;;;;;;;-0.63;40.99;93495.69;4955591;28;20121;-74
2021/01/17 07:22:36;;;;;;;37.22;22.33;;;;;;;-0.48;41.13;93514.19;4956935;28;20122;-73
2021/01/17 07:25:05;;;;;;;44.45;24.95;;;;;;;-0.23;40.83;93517.31;4949813;28;20043;-75
2021/01/17 07:28:01;;;;;;;20.85;12.38;;;;;;;-0.25;39.95;93518.59;4950759;28;20888;-75
2021/01/17 07:30:32;;;;;;;;;;;;;;;-0.07;40.08;93515.81;4953086;28;20043;-75
2021/01/17 07:33:02;;;;;;;20.45;11.32;;;;;;;-0.04;40.18;93510.94;4957757;28;20024;-74
2021/01/17 07:35:27;;;;;;;26.20;15.93;;;;;;;-0.20;39.96;93511.69;4957043;28;20126;-75
2021/01/17 07:37:55;;;;;;;14.32;10.68;;;;;;;-0.12;40.15;93513.13;4955716;28;20023;-75
2021/01/17 07:43:10;;;;;;;19.73;10.32;;;;;;;-0.25;39.98;93513.38;4957756;28;20521;-75
2021/01/17 07:45:40;;;;;;;13.70;9.25;;;;;;;-0.44;39.96;93518.69;4958729;28;20183;-75
2021/01/17 07:48:07;;;;;;;21.70;11.68;;;;;;;-0.47;40.80;93510.59;4961648;28;20471;-75
2021/01/17 07:50:38;;;;;;;23.67;13.45;;;;;;;-0.28;40.97;93519.03;4957451;28;20039;-75
2021/01/17 07:53:12;;;;;;;22.27;14.73;;;;;;;-0.22;40.42;93518.91;4952983;28;20051;-74
2021/01/17 07:55:39;;;;;;;19.98;13.50;;;;;;;-0.15;40.36;93523.97;4957700;28;20034;-75
2021/01/17 07:58:09;;;;;;;19.58;12.27;;;;;;;-0.06;40.05;93517.41;4953504;28;20042;-74
2021/01/17 08:00:38;;;;;;;13.23;8.85;;;;;;;0.00;39.86;93516.50;4959072;28;20042;-75
2021/01/17 08:03:04;;;;;;;23.70;11.63;;;;;;;0.07;39.53;93522.34;4957787;28;20511;-76
2021/01/17 08:05:53;;;;;;;15.38;9.35;;;;;;;0.14;39.13;93520.41;4951745;28;20046;-75
2021/01/17 08:08:34;;;;;;;14.13;9.60;;;;;;;0.14;39.19;93523.00;4954565;28;20050;-75
2021/01/17 08:10:59;;;;;;;21.05;11.80;;;;;;;0.19;38.94;93520.50;4952875;28;20062;-75
2021/01/17 08:13:32;;;;;;;12.27;8.57;;;;;;;0.13;39.06;93523.22;4958790;28;20031;-75
2021/01/17 08:16:11;;;;;;;16.85;10.48;;;;;;;0.27;38.81;93524.53;4956591;28;20050;-75
2021/01/17 08:18:38;;;;;;;15.38;8.75;;;;;;;0.28;38.59;93528.72;4954755;28;20062;-75
2021/01/17 08:21:21;;;;;;;15.70;8.23;;;;;;;0.38;38.42;93527.09;4955600;28;20043;-75
2021/01/17 08:24:13;;;;;;;14.68;9.35;;;;;;;0.41;38.15;93534.41;4949954;28;20093;-75
2021/01/17 08:26:58;;;;;;;16.35;9.27;;;;;;;0.56;37.54;93531.31;4942174;28;20038;-75
2021/01/17 08:29:25;;;;;;;20.75;11.18;;;;;;;0.64;37.71;93517.13;4950161;28;20073;-74
2021/01/17 08:31:50;;;;;;;19.98;10.88;;;;;;;0.90;37.71;93526.94;4954982;28;20054;-74
2021/01/17 08:34:28;;;;;;;13.52;8.90;;;;;;;1.14;36.98;93533.56;4957985;28;20707;-74
2021/01/17 08:36:55;;;;;;;12.82;9.05;;;;;;;1.19;36.79;93527.66;4952794;28;20039;-75
2021/01/17 08:39:54;;;;;;;12.75;9.10;;;;;;;1.40;36.48;93532.13;4957591;28;20168;-74
2021/01/17 08:42:34;;;;;;;14.77;8.30;;;;;;;1.52;36.28;93532.03;4949256;28;20047;-74
2021/01/17 08:45:01;;;;;;;12.70;8.00;;;;;;;1.78;36.03;93548.81;4967504;28;20109;-75
2021/01/17 08:47:26;;;;;;;12.35;8.43;;;;;;;1.86;35.94;93536.13;4956455;28;20068;-75
2021/01/17 08:49:53;;;;;;;11.63;6.38;;;;;;;1.92;35.31;93544.81;4958775;28;20491;-74
2021/01/17 08:52:30;;;;;;;11.57;7.00;;;;;;;1.90;34.98;93552.09;4956391;28;20019;-74
2021/01/17 08:54:56;;;;;;;7.18;5.82;;;;;;;1.79;34.57;93550.38;4953884;28;20936;-75
2021/01/17 08:57:57;;;;;;;9.00;5.80;;;;;;;1.72;35.25;93540.13;4959352;28;20164;-75
2021/01/17 09:01:02;;;;;;;14.07;8.77;;;;;;;1.88;35.33;93544.53;4910721;29;20110;-74
2021/01/17 09:03:34;;;;;;;23.10;14.38;;;;;;;1.91;35.55;93549.22;4956971;28;20034;-75
2021/01/17 09:06:21;;;;;;;25.02;13.98;;;;;;;1.65;35.82;93536.91;4958939;28;20467;-75
2021/01/17 09:08:53;;;;;;;30.30;13.68;;;;;;;1.63;35.62;93551.97;4959056;28;20042;-75
2021/01/17 09:11:24;;;;;;;34.85;15.30;;;;;;;1.66;35.67;93556.72;4958346;28;20118;-75
2021/01/17 09:14:19;;;;;;;13.63;8.00;;;;;;;1.80;35.84;93544.94;4955275;28;20676;-74
2021/01/17 09:17:09;;;;;;;29.27;12.93;;;;;;;1.89;35.97;93560.94;4957583;28;20373;-75
2021/01/17 09:19:37;;;;;;;27.98;16.02;;;;;;;2.07;35.94;93552.84;4962250;28;20073;-74
2021/01/17 09:22:07;;;;;;;22.27;15.30;;;;;;;2.17;36.78;93551.16;4959083;28;20027;-75
2021/01/17 09:24:35;;;;;;;15.10;10.88;;;;;;;2.05;35.89;93547.84;4958315;28;20167;-75
2021/01/17 09:27:03;;;;;;;37.72;21.73;;;;;;;1.97;36.49;93543.06;4958731;28;20139;-75
2021/01/17 09:29:36;;;;;;;19.85;13.93;;;;;;;2.04;36.78;93541.09;4957097;28;20475;-74
2021/01/17 09:32:08;;;;;;;28.40;14.98;;;;;;;2.11;36.73;93544.28;4957089;28;20054;-75
2021/01/17 09:34:42;;;;;;;81.78;39.25;;;;;;;2.06;36.33;93530.41;4960464;28;20030;-74
2021/01/17 09:37:13;;;;;;;15.10;9.77;;;;;;;1.95;36.79;93533.94;4961271;28;20162;-74
2021/01/17 09:39:51;;;;;;;13.95;9.48;;;;;;;1.86;36.60;93536.13;4961102;28;20269;-74
2021/01/17 09:42:19;;;;;;;46.50;31.50;;;;;;;1.77;36.77;93510.75;4959131;28;20412;-74
2021/01/17 09:44:58;;;;;;;241.40;133.88;;;;;;;1.95;37.51;93519.09;4959603;28;20054;-74
2021/01/17 09:47:26;;;;;;;28.20;16.05;;;;;;;1.89;36.67;93516.66;4977613;28;20027;-75
2021/01/17 09:49:52;;;;;;;246.40;191.27;;;;;;;1.98;36.80;93513.38;4959490;28;20249;-74
2021/01/17 09:52:25;;;;;;;82.40;58.15;;;;;;;2.01;36.93;93502.47;4967210;28;20072;-74
2021/01/17 09:54:54;;;;;;;43.25;30.08;;;;;;;2.01;36.47;93502.47;4954819;28;20042;-76
2021/01/17 09:57:26;;;;;;;27.52;17.52;;;;;;;2.11;36.57;93502.56;4964130;28;20078;-76
2021/01/17 09:59:53;;;;;;;27.10;18.90;;;;;;;2.33;36.57;93499.19;4961784;28;20122;-76
2021/01/17 10:02:21;;;;;;;38.92;21.15;;;;;;;2.35;36.43;93491.88;4962374;28;20030;-76
2021/01/17 10:04:46;;;;;;;23.95;14.85;;;;;;;2.32;35.28;93487.16;4959954;28;20058;-76
2021/01/17 10:07:23;;;;;;;15.40;9.32;;;;;;;2.51;34.87;93480.56;4960359;28;20126;-76
2021/01/17 10:09:50;;;;;;;21.88;15.10;;;;;;;2.60;35.19;93471.25;4959260;28;20050;-76
2021/01/17 10:12:20;;;;;;;20.73;12.88;;;;;;;2.61;34.28;93475.47;4964126;28;20126;-76
2021/01/17 10:14:45;;;;;;;21.33;14.85;;;;;;;2.39;34.24;93474.72;4958937;28;20043;-76
2021/01/17 10:17:11;;;;;;;34.55;20.77;;;;;;;2.21;34.73;93480.25;4959064;28;20046;-75
2021/01/17 10:19:38;;;;;;;20.88;13.07;;;;;;;2.26;34.49;93477.72;4958984;28;20375;-76
2021/01/17 10:22:05;;;;;;;17.55;12.07;;;;;;;2.27;34.64;93474.88;4960715;28;20069;-76
2021/01/17 10:24:33;;;;;;;23.30;15.85;;;;;;;2.29;34.71;93479.84;4958134;28;20562;-76
2021/01/17 10:27:00;;;;;;;16.98;11.10;;;;;;;2.56;34.50;93478.00;4952551;28;20062;-75
2021/01/17 10:29:31;;;;;;;22.05;10.98;;;;;;;2.64;33.77;93464.50;4958536;28;20872;-76
2021/01/17 10:32:03;;;;;;;18.35;11.75;;;;;;;2.84;34.22;93469.13;4954398;28;20050;-76
2021/01/17 10:34:32;;;;;;;16.48;10.75;;;;;;;2.82;33.75;93450.34;4973118;28;20451;-76
2021/01/17 10:37:06;;;;;;;28.20;20.13;;;;;;;3.17;34.08;93458.44;4958101;28;20043;-79
2021/01/17 10:39:35;;;;;;;18.50;12.40;;;;;;;3.49;33.40;93448.69;4973174;28;20053;-81
2021/01/17 10:42:08;;;;;;;22.30;14.18;;;;;;;3.86;32.72;93456.44;4957316;28;20117;-81
2021/01/17 10:44:40;;;;;;;26.08;18.92;;;;;;;4.05;32.23;93467.28;4956481;28;20042;-81
2021/01/17 10:47:30;;;;;;;19.85;12.30;;;;;;;4.17;31.82;93452.13;4958971;28;20050;-81
2021/01/17 10:49:59;;;;;;;18.02;11.88;;;;;;;4.07;31.77;93451.31;4954448;28;20058;-80
2021/01/17 10:52:31;;;;;;;19.10;12.23;;;;;;;4.15;32.80;93442.97;4954399;28;20034;-81
2021/01/17 10:54:59;;;;;;;20.67;13.65;;;;;;;4.38;32.05;93447.75;4953674;28;20093;-81
2021/01/17 10:57:26;;;;;;;17.88;13.68;;;;;;;4.35;31.33;93453.47;4955416;28;20042;-82
2021/01/17 10:59:55;;;;;;;20.45;13.70;;;;;;;4.36;30.89;93449.81;4957855;28;20145;-81
2021/01/17 11:02:22;;;;;;;18.05;12.23;;;;;;;4.27;31.22;93452.16;4952274;28;20038;-82
2021/01/17 11:04:48;;;;;;;20.15;12.95;;;;;;;4.19;31.47;93450.06;4958680;28;20030;-81
2021/01/17 11:07:18;;;;;;;17.77;12.10;;;;;;;4.09;31.42;93449.22;4958741;28;20049;-81
2021/01/17 11:09:43;;;;;;;15.70;10.50;;;;;;;3.87;31.00;93437.13;4962224;28;20055;-81
2021/01/17 11:12:13;;;;;;;14.45;11.05;;;;;;;4.09;31.39;93447.41;4958513;28;20542;-82
2021/01/17 11:14:38;;;;;;;15.55;10.73;;;;;;;4.00;31.27;93450.78;4957486;28;20389;-81
2021/01/17 11:17:04;;;;;;;22.95;12.85;;;;;;;4.00;31.52;93445.53;4962530;28;20058;-81
2021/01/17 11:19:40;;;;;;;18.90;12.00;;;;;;;4.18;32.09;93442.47;4965154;28;20026;-81
2021/01/17 11:22:06;;;;;;;17.73;12.35;;;;;;;4.29;31.44;93449.28;4959121;28;20123;-81
2021/01/17 11:24:39;;;;;;;23.45;13.30;;;;;;;4.07;31.73;93441.63;4961879;28;20125;-81
2021/01/17 11:27:17;;;;;;;14.68;10.30;;;;;;;3.86;31.59;93440.00;4959974;28;20530;-82
2021/01/17 11:29:43;;;;;;;13.82;10.15;;;;;;;3.68;32.00;93449.06;4962855;28;20046;-82
2021/01/17 11:32:11;;;;;;;13.90;10.50;;;;;;;3.54;32.29;93452.38;4961912;28;20053;-81
2021/01/17 11:34:38;;;;;;;18.58;12.02;;;;;;;3.65;32.97;93435.72;4961297;28;20037;-80
2021/01/17 11:37:06;;;;;;;23.88;15.75;;;;;;;3.67;33.27;93437.03;4961112;28;20034;-80
2021/01/17 11:39:31;;;;;;;23.15;14.30;;;;;;;3.62;33.06;93426.53;4972282;28;20089;-81